sensor_id;sensor_type;location;lat;lon;timestamp;P1;durP1;ratioP1;P2;durP2;ratioP2
50104;SDS011;47690;39.202;-77.198;2023-04-06T00:02:10;4.10;;;3.70;;
50104;SDS011;47690;39.202;-77.198;2023-04-06T00:04:40;4.38;;;3.70;;
50104;SDS011;47690;39.202;-77.198;2023-04-06T00:07:15;4.68;;;4.28;;
50104;SDS011;47690;39.202;-77.198;2023-04-06T00:09:48;4.40;;;3.95;;
50104;SDS011;47690;39.202;-77.198;2023-04-06T00:12:26;4.78;;;3.88;;
50104;SDS011;47690;39.202;-77.198;2023-04-06T00:15:03;4.00;;;3.65;;
50104;SDS011;47690;39.202;-77.198;2023-04-06T00:17:41;4.13;;;3.72;;
50104;SDS011;47690;39.202;-77.198;2023-04-06T00:20:13;4.25;;;3.75;;
50104;SDS011;47690;39.202;-77.198;2023-04-06T00:22:49;4.38;;;3.97;;
50104;SDS011;47690;39.202;-77.198;2023-04-06T00:25:22;4.05;;;3.65;;
50104;SDS011;47690;39.202;-77.198;2023-04-06T00:27:52;4.25;;;3.85;;
50104;SDS011;47690;39.202;-77.198;2023-04-06T00:30:33;4.03;;;3.47;;
50104;SDS011;47690;39.202;-77.198;2023-04-06T00:33:08;4.80;;;3.83;;
50104;SDS011;47690;39.202;-77.198;2023-04-06T00:38:13;4.55;;;3.78;;
50104;SDS011;47690;39.202;-77.198;2023-04-06T00:40:47;3.97;;;3.67;;
50104;SDS011;47690;39.202;-77.198;2023-04-06T00:43:18;4.00;;;3.63;;
50104;SDS011;47690;39.202;-77.198;2023-04-06T00:45:48;3.83;;;3.42;;
50104;SDS011;47690;39.202;-77.198;2023-04-06T00:48:18;3.97;;;3.63;;
50104;SDS011;47690;39.202;-77.198;2023-04-06T00:50:49;4.28;;;3.88;;
50104;SDS011;47690;39.202;-77.198;2023-04-06T00:53:20;4.72;;;3.90;;
50104;SDS011;47690;39.202;-77.198;2023-04-06T00:55:52;5.28;;;4.20;;
50104;SDS011;47690;39.202;-77.198;2023-04-06T00:58:23;4.72;;;3.78;;
50104;SDS011;47690;39.202;-77.198;2023-04-06T01:01:07;5.82;;;4.05;;
50104;SDS011;47690;39.202;-77.198;2023-04-06T01:03:40;5.78;;;4.30;;
50104;SDS011;47690;39.202;-77.198;2023-04-06T01:06:16;4.43;;;3.88;;
50104;SDS011;47690;39.202;-77.198;2023-04-06T01:09:04;4.35;;;3.75;;
50104;SDS011;47690;39.202;-77.198;2023-04-06T01:11:36;4.38;;;3.85;;
50104;SDS011;47690;39.202;-77.198;2023-04-06T01:14:17;4.25;;;3.85;;
50104;SDS011;47690;39.202;-77.198;2023-04-06T01:16:57;4.53;;;4.13;;
50104;SDS011;47690;39.202;-77.198;2023-04-06T01:19:40;4.53;;;3.78;;
50104;SDS011;47690;39.202;-77.198;2023-04-06T01:22:21;4.30;;;3.90;;
50104;SDS011;47690;39.202;-77.198;2023-04-06T01:25:03;4.80;;;3.97;;
50104;SDS011;47690;39.202;-77.198;2023-04-06T01:28:07;4.47;;;4.05;;
50104;SDS011;47690;39.202;-77.198;2023-04-06T01:31:10;4.93;;;3.97;;
50104;SDS011;47690;39.202;-77.198;2023-04-06T01:33:51;4.13;;;3.80;;
50104;SDS011;47690;39.202;-77.198;2023-04-06T01:36:31;4.82;;;4.03;;
50104;SDS011;47690;39.202;-77.198;2023-04-06T01:39:21;5.25;;;4.10;;
50104;SDS011;47690;39.202;-77.198;2023-04-06T01:42:01;4.18;;;3.78;;
50104;SDS011;47690;39.202;-77.198;2023-04-06T01:44:36;4.80;;;3.95;;
50104;SDS011;47690;39.202;-77.198;2023-04-06T01:47:14;4.32;;;3.92;;
50104;SDS011;47690;39.202;-77.198;2023-04-06T01:49:51;4.32;;;3.80;;
50104;SDS011;47690;39.202;-77.198;2023-04-06T01:52:23;4.43;;;3.92;;
50104;SDS011;47690;39.202;-77.198;2023-04-06T01:54:56;5.03;;;4.00;;
50104;SDS011;47690;39.202;-77.198;2023-04-06T01:57:50;4.55;;;4.15;;
50104;SDS011;47690;39.202;-77.198;2023-04-06T02:00:32;4.57;;;4.18;;
50104;SDS011;47690;39.202;-77.198;2023-04-06T02:03:09;4.30;;;3.90;;
50104;SDS011;47690;39.202;-77.198;2023-04-06T02:05:42;4.40;;;4.00;;
50104;SDS011;47690;39.202;-77.198;2023-04-06T02:08:27;4.40;;;3.97;;
50104;SDS011;47690;39.202;-77.198;2023-04-06T02:11:10;4.85;;;4.35;;
50104;SDS011;47690;39.202;-77.198;2023-04-06T02:13:50;4.47;;;3.92;;
50104;SDS011;47690;39.202;-77.198;2023-04-06T02:16:32;4.40;;;3.75;;
50104;SDS011;47690;39.202;-77.198;2023-04-06T02:19:04;4.93;;;4.22;;
50104;SDS011;47690;39.202;-77.198;2023-04-06T02:21:36;5.18;;;4.35;;
50104;SDS011;47690;39.202;-77.198;2023-04-06T02:24:11;4.70;;;4.30;;
50104;SDS011;47690;39.202;-77.198;2023-04-06T02:26:44;5.28;;;4.15;;
50104;SDS011;47690;39.202;-77.198;2023-04-06T02:29:15;4.53;;;4.13;;
50104;SDS011;47690;39.202;-77.198;2023-04-06T02:31:50;4.68;;;4.13;;
50104;SDS011;47690;39.202;-77.198;2023-04-06T02:34:23;4.38;;;3.97;;
50104;SDS011;47690;39.202;-77.198;2023-04-06T02:37:01;4.80;;;4.20;;
50104;SDS011;47690;39.202;-77.198;2023-04-06T02:39:32;4.43;;;4.00;;
50104;SDS011;47690;39.202;-77.198;2023-04-06T02:42:08;5.70;;;4.47;;
50104;SDS011;47690;39.202;-77.198;2023-04-06T02:44:41;4.65;;;4.25;;
50104;SDS011;47690;39.202;-77.198;2023-04-06T02:47:14;5.05;;;3.88;;
50104;SDS011;47690;39.202;-77.198;2023-04-06T02:49:49;4.60;;;3.90;;
50104;SDS011;47690;39.202;-77.198;2023-04-06T02:52:20;5.65;;;4.45;;
50104;SDS011;47690;39.202;-77.198;2023-04-06T02:54:51;5.97;;;4.80;;
50104;SDS011;47690;39.202;-77.198;2023-04-06T02:57:27;5.20;;;4.28;;
50104;SDS011;47690;39.202;-77.198;2023-04-06T03:00:00;4.93;;;4.43;;
50104;SDS011;47690;39.202;-77.198;2023-04-06T03:02:42;5.15;;;4.35;;
50104;SDS011;47690;39.202;-77.198;2023-04-06T03:05:16;4.82;;;4.43;;
50104;SDS011;47690;39.202;-77.198;2023-04-06T03:07:48;4.90;;;4.40;;
50104;SDS011;47690;39.202;-77.198;2023-04-06T03:10:34;4.70;;;4.30;;
50104;SDS011;47690;39.202;-77.198;2023-04-06T03:13:08;5.07;;;4.17;;
50104;SDS011;47690;39.202;-77.198;2023-04-06T03:15:51;4.97;;;4.47;;
50104;SDS011;47690;39.202;-77.198;2023-04-06T03:18:23;4.88;;;4.30;;
50104;SDS011;47690;39.202;-77.198;2023-04-06T03:21:01;4.57;;;4.18;;
50104;SDS011;47690;39.202;-77.198;2023-04-06T03:23:56;5.00;;;4.35;;
50104;SDS011;47690;39.202;-77.198;2023-04-06T03:26:33;5.05;;;4.50;;
50104;SDS011;47690;39.202;-77.198;2023-04-06T03:29:14;5.40;;;4.45;;
50104;SDS011;47690;39.202;-77.198;2023-04-06T03:32:06;5.38;;;4.47;;
50104;SDS011;47690;39.202;-77.198;2023-04-06T03:34:55;4.63;;;3.97;;
50104;SDS011;47690;39.202;-77.198;2023-04-06T03:37:47;5.32;;;4.32;;
50104;SDS011;47690;39.202;-77.198;2023-04-06T03:45:09;4.40;;;4.00;;
50104;SDS011;47690;39.202;-77.198;2023-04-06T03:47:51;4.65;;;4.25;;
50104;SDS011;47690;39.202;-77.198;2023-04-06T03:50:31;5.57;;;4.60;;
50104;SDS011;47690;39.202;-77.198;2023-04-06T03:53:04;5.07;;;4.63;;
50104;SDS011;47690;39.202;-77.198;2023-04-06T03:55:35;4.88;;;4.40;;
50104;SDS011;47690;39.202;-77.198;2023-04-06T03:58:17;5.20;;;4.70;;
50104;SDS011;47690;39.202;-77.198;2023-04-06T04:01:04;7.20;;;4.70;;
50104;SDS011;47690;39.202;-77.198;2023-04-06T04:03:36;5.07;;;4.57;;
50104;SDS011;47690;39.202;-77.198;2023-04-06T04:08:44;4.50;;;4.10;;
50104;SDS011;47690;39.202;-77.198;2023-04-06T04:11:21;5.30;;;4.45;;
50104;SDS011;47690;39.202;-77.198;2023-04-06T04:14:00;5.22;;;4.60;;
50104;SDS011;47690;39.202;-77.198;2023-04-06T04:16:35;5.47;;;4.97;;
50104;SDS011;47690;39.202;-77.198;2023-04-06T04:19:09;5.90;;;5.30;;
50104;SDS011;47690;39.202;-77.198;2023-04-06T04:21:45;5.72;;;5.20;;
50104;SDS011;47690;39.202;-77.198;2023-04-06T04:24:31;5.20;;;4.70;;
50104;SDS011;47690;39.202;-77.198;2023-04-06T04:27:04;5.10;;;4.63;;
50104;SDS011;47690;39.202;-77.198;2023-04-06T04:29:40;5.30;;;4.80;;
50104;SDS011;47690;39.202;-77.198;2023-04-06T04:32:12;5.60;;;4.88;;
50104;SDS011;47690;39.202;-77.198;2023-04-06T04:34:52;5.82;;;5.28;;
50104;SDS011;47690;39.202;-77.198;2023-04-06T04:37:37;5.65;;;5.05;;
50104;SDS011;47690;39.202;-77.198;2023-04-06T04:40:12;6.20;;;5.60;;
50104;SDS011;47690;39.202;-77.198;2023-04-06T04:43:03;6.00;;;5.30;;
50104;SDS011;47690;39.202;-77.198;2023-04-06T04:45:34;6.20;;;5.22;;
50104;SDS011;47690;39.202;-77.198;2023-04-06T04:48:27;5.63;;;5.13;;
50104;SDS011;47690;39.202;-77.198;2023-04-06T04:51:09;5.97;;;5.40;;
50104;SDS011;47690;39.202;-77.198;2023-04-06T04:53:56;6.07;;;5.38;;
50104;SDS011;47690;39.202;-77.198;2023-04-06T04:56:33;6.85;;;5.72;;
50104;SDS011;47690;39.202;-77.198;2023-04-06T04:59:27;5.93;;;5.35;;
50104;SDS011;47690;39.202;-77.198;2023-04-06T05:02:12;6.30;;;5.70;;
50104;SDS011;47690;39.202;-77.198;2023-04-06T05:04:55;6.65;;;5.65;;
50104;SDS011;47690;39.202;-77.198;2023-04-06T05:07:32;7.55;;;6.03;;
50104;SDS011;47690;39.202;-77.198;2023-04-06T05:10:08;7.05;;;6.07;;
50104;SDS011;47690;39.202;-77.198;2023-04-06T05:12:52;5.97;;;5.38;;
50104;SDS011;47690;39.202;-77.198;2023-04-06T05:15:22;7.43;;;5.57;;
50104;SDS011;47690;39.202;-77.198;2023-04-06T05:18:01;6.70;;;5.95;;
50104;SDS011;47690;39.202;-77.198;2023-04-06T05:20:43;6.32;;;5.72;;
50104;SDS011;47690;39.202;-77.198;2023-04-06T05:23:16;6.13;;;5.28;;
50104;SDS011;47690;39.202;-77.198;2023-04-06T05:26:01;6.40;;;5.80;;
50104;SDS011;47690;39.202;-77.198;2023-04-06T05:28:35;6.40;;;5.80;;
50104;SDS011;47690;39.202;-77.198;2023-04-06T05:31:22;6.15;;;5.55;;
50104;SDS011;47690;39.202;-77.198;2023-04-06T05:37:17;5.55;;;5.05;;
50104;SDS011;47690;39.202;-77.198;2023-04-06T05:39:56;5.50;;;4.97;;
50104;SDS011;47690;39.202;-77.198;2023-04-06T05:42:40;4.78;;;4.30;;
50104;SDS011;47690;39.202;-77.198;2023-04-06T05:45:16;4.97;;;4.47;;
50104;SDS011;47690;39.202;-77.198;2023-04-06T05:48:06;4.28;;;3.88;;
50104;SDS011;47690;39.202;-77.198;2023-04-06T05:50:47;4.32;;;3.92;;
50104;SDS011;47690;39.202;-77.198;2023-04-06T05:53:43;4.07;;;3.65;;
50104;SDS011;47690;39.202;-77.198;2023-04-06T05:56:15;4.65;;;3.22;;
50104;SDS011;47690;39.202;-77.198;2023-04-06T06:01:33;3.13;;;2.85;;
50104;SDS011;47690;39.202;-77.198;2023-04-06T06:04:12;3.53;;;2.88;;
50104;SDS011;47690;39.202;-77.198;2023-04-06T06:06:51;3.13;;;2.80;;
50104;SDS011;47690;39.202;-77.198;2023-04-06T06:09:40;3.00;;;2.60;;
50104;SDS011;47690;39.202;-77.198;2023-04-06T06:12:32;3.22;;;2.50;;
50104;SDS011;47690;39.202;-77.198;2023-04-06T06:15:08;2.60;;;2.40;;
50104;SDS011;47690;39.202;-77.198;2023-04-06T06:17:52;3.10;;;2.80;;
50104;SDS011;47690;39.202;-77.198;2023-04-06T06:20:34;2.90;;;2.60;;
50104;SDS011;47690;39.202;-77.198;2023-04-06T06:23:12;5.00;;;2.47;;
50104;SDS011;47690;39.202;-77.198;2023-04-06T06:25:45;3.10;;;2.40;;
50104;SDS011;47690;39.202;-77.198;2023-04-06T06:28:22;2.75;;;2.28;;
50104;SDS011;47690;39.202;-77.198;2023-04-06T06:31:05;2.30;;;2.10;;
50104;SDS011;47690;39.202;-77.198;2023-04-06T06:33:40;2.30;;;2.10;;
50104;SDS011;47690;39.202;-77.198;2023-04-06T06:36:12;2.97;;;2.67;;
50104;SDS011;47690;39.202;-77.198;2023-04-06T06:38:51;2.50;;;2.30;;
50104;SDS011;47690;39.202;-77.198;2023-04-06T06:41:32;4.25;;;2.28;;
50104;SDS011;47690;39.202;-77.198;2023-04-06T06:44:10;2.72;;;2.30;;
50104;SDS011;47690;39.202;-77.198;2023-04-06T06:46:43;2.50;;;2.30;;
50104;SDS011;47690;39.202;-77.198;2023-04-06T06:49:15;2.30;;;2.10;;
50104;SDS011;47690;39.202;-77.198;2023-04-06T06:51:50;3.13;;;2.30;;
50104;SDS011;47690;39.202;-77.198;2023-04-06T06:54:27;2.45;;;2.25;;
50104;SDS011;47690;39.202;-77.198;2023-04-06T06:57:04;3.35;;;2.25;;
50104;SDS011;47690;39.202;-77.198;2023-04-06T06:59:40;2.92;;;2.20;;
50104;SDS011;47690;39.202;-77.198;2023-04-06T07:02:16;2.33;;;2.13;;
50104;SDS011;47690;39.202;-77.198;2023-04-06T07:05:04;2.40;;;2.20;;
50104;SDS011;47690;39.202;-77.198;2023-04-06T07:08:24;2.40;;;2.20;;
50104;SDS011;47690;39.202;-77.198;2023-04-06T07:11:09;2.42;;;2.20;;
50104;SDS011;47690;39.202;-77.198;2023-04-06T07:13:49;2.20;;;2.00;;
50104;SDS011;47690;39.202;-77.198;2023-04-06T07:16:34;2.95;;;2.10;;
50104;SDS011;47690;39.202;-77.198;2023-04-06T07:19:09;2.40;;;2.20;;
50104;SDS011;47690;39.202;-77.198;2023-04-06T07:21:45;2.78;;;2.30;;
50104;SDS011;47690;39.202;-77.198;2023-04-06T07:24:25;2.50;;;2.20;;
50104;SDS011;47690;39.202;-77.198;2023-04-06T07:27:08;2.38;;;2.17;;
50104;SDS011;47690;39.202;-77.198;2023-04-06T07:29:43;1.88;;;1.77;;
50104;SDS011;47690;39.202;-77.198;2023-04-06T07:32:27;2.42;;;2.22;;
50104;SDS011;47690;39.202;-77.198;2023-04-06T07:35:03;2.30;;;2.10;;
50104;SDS011;47690;39.202;-77.198;2023-04-06T07:37:40;2.88;;;2.25;;
50104;SDS011;47690;39.202;-77.198;2023-04-06T07:40:16;2.78;;;2.05;;
50104;SDS011;47690;39.202;-77.198;2023-04-06T07:42:48;2.70;;;2.10;;
50104;SDS011;47690;39.202;-77.198;2023-04-06T07:45:20;2.80;;;2.20;;
50104;SDS011;47690;39.202;-77.198;2023-04-06T07:47:52;2.47;;;2.28;;
50104;SDS011;47690;39.202;-77.198;2023-04-06T07:50:31;2.42;;;2.17;;
50104;SDS011;47690;39.202;-77.198;2023-04-06T07:53:02;2.92;;;2.33;;
50104;SDS011;47690;39.202;-77.198;2023-04-06T07:55:35;2.60;;;2.17;;
50104;SDS011;47690;39.202;-77.198;2023-04-06T07:58:07;2.92;;;2.22;;
50104;SDS011;47690;39.202;-77.198;2023-04-06T08:00:37;2.47;;;2.20;;
50104;SDS011;47690;39.202;-77.198;2023-04-06T08:03:18;2.40;;;2.20;;
50104;SDS011;47690;39.202;-77.198;2023-04-06T08:05:53;4.15;;;2.30;;
50104;SDS011;47690;39.202;-77.198;2023-04-06T08:08:27;2.58;;;2.20;;
50104;SDS011;47690;39.202;-77.198;2023-04-06T08:11:02;2.47;;;2.20;;
50104;SDS011;47690;39.202;-77.198;2023-04-06T08:13:33;2.20;;;2.00;;
50104;SDS011;47690;39.202;-77.198;2023-04-06T08:16:08;2.47;;;2.28;;
50104;SDS011;47690;39.202;-77.198;2023-04-06T08:18:40;2.45;;;2.10;;
50104;SDS011;47690;39.202;-77.198;2023-04-06T08:21:18;2.30;;;2.10;;
50104;SDS011;47690;39.202;-77.198;2023-04-06T08:23:48;2.58;;;2.30;;
50104;SDS011;47690;39.202;-77.198;2023-04-06T08:26:19;2.40;;;2.20;;
50104;SDS011;47690;39.202;-77.198;2023-04-06T08:28:49;2.60;;;2.30;;
50104;SDS011;47690;39.202;-77.198;2023-04-06T08:31:23;2.13;;;1.92;;
50104;SDS011;47690;39.202;-77.198;2023-04-06T08:33:54;2.72;;;2.20;;
50104;SDS011;47690;39.202;-77.198;2023-04-06T08:36:27;2.58;;;2.20;;
50104;SDS011;47690;39.202;-77.198;2023-04-06T08:39:02;2.58;;;2.20;;
50104;SDS011;47690;39.202;-77.198;2023-04-06T08:41:34;2.35;;;2.15;;
50104;SDS011;47690;39.202;-77.198;2023-04-06T08:44:05;3.15;;;2.40;;
50104;SDS011;47690;39.202;-77.198;2023-04-06T08:46:37;3.17;;;2.28;;
50104;SDS011;47690;39.202;-77.198;2023-04-06T08:49:11;2.78;;;2.20;;
50104;SDS011;47690;39.202;-77.198;2023-04-06T08:51:42;2.55;;;2.30;;
50104;SDS011;47690;39.202;-77.198;2023-04-06T08:54:12;2.88;;;2.30;;
50104;SDS011;47690;39.202;-77.198;2023-04-06T08:56:42;2.72;;;2.35;;
50104;SDS011;47690;39.202;-77.198;2023-04-06T08:59:13;2.50;;;2.30;;
50104;SDS011;47690;39.202;-77.198;2023-04-06T09:01:42;2.40;;;2.20;;
50104;SDS011;47690;39.202;-77.198;2023-04-06T09:04:14;2.83;;;2.45;;
50104;SDS011;47690;39.202;-77.198;2023-04-06T09:06:44;2.58;;;2.38;;
50104;SDS011;47690;39.202;-77.198;2023-04-06T09:09:15;3.13;;;2.30;;
50104;SDS011;47690;39.202;-77.198;2023-04-06T09:11:45;2.60;;;2.35;;
50104;SDS011;47690;39.202;-77.198;2023-04-06T09:14:35;2.40;;;2.20;;
50104;SDS011;47690;39.202;-77.198;2023-04-06T09:17:07;2.50;;;2.30;;
50104;SDS011;47690;39.202;-77.198;2023-04-06T09:19:47;3.50;;;2.42;;
50104;SDS011;47690;39.202;-77.198;2023-04-06T09:22:17;2.70;;;2.30;;
50104;SDS011;47690;39.202;-77.198;2023-04-06T09:24:48;3.05;;;2.15;;
50104;SDS011;47690;39.202;-77.198;2023-04-06T09:27:34;2.30;;;2.10;;
50104;SDS011;47690;39.202;-77.198;2023-04-06T09:30:09;2.75;;;2.30;;
50104;SDS011;47690;39.202;-77.198;2023-04-06T09:32:49;2.58;;;2.38;;
50104;SDS011;47690;39.202;-77.198;2023-04-06T09:35:22;2.38;;;2.17;;
50104;SDS011;47690;39.202;-77.198;2023-04-06T09:37:54;2.60;;;2.40;;
50104;SDS011;47690;39.202;-77.198;2023-04-06T09:40:27;2.72;;;2.50;;
50104;SDS011;47690;39.202;-77.198;2023-04-06T09:43:00;3.25;;;2.70;;
50104;SDS011;47690;39.202;-77.198;2023-04-06T09:45:32;2.60;;;2.40;;
50104;SDS011;47690;39.202;-77.198;2023-04-06T09:48:01;2.63;;;2.38;;
50104;SDS011;47690;39.202;-77.198;2023-04-06T09:50:33;2.72;;;2.40;;
50104;SDS011;47690;39.202;-77.198;2023-04-06T09:53:03;2.60;;;2.38;;
50104;SDS011;47690;39.202;-77.198;2023-04-06T09:55:43;2.90;;;2.60;;
50104;SDS011;47690;39.202;-77.198;2023-04-06T09:58:16;2.40;;;2.20;;
50104;SDS011;47690;39.202;-77.198;2023-04-06T10:01:07;2.65;;;2.45;;
50104;SDS011;47690;39.202;-77.198;2023-04-06T10:06:27;2.58;;;2.20;;
50104;SDS011;47690;39.202;-77.198;2023-04-06T10:09:05;2.70;;;2.50;;
50104;SDS011;47690;39.202;-77.198;2023-04-06T10:11:38;2.40;;;2.20;;
50104;SDS011;47690;39.202;-77.198;2023-04-06T10:14:11;2.50;;;2.30;;
50104;SDS011;47690;39.202;-77.198;2023-04-06T10:16:41;3.05;;;2.75;;
50104;SDS011;47690;39.202;-77.198;2023-04-06T10:19:17;2.58;;;2.38;;
50104;SDS011;47690;39.202;-77.198;2023-04-06T10:21:57;2.55;;;2.35;;
50104;SDS011;47690;39.202;-77.198;2023-04-06T10:24:37;2.90;;;2.42;;
50104;SDS011;47690;39.202;-77.198;2023-04-06T10:27:08;3.20;;;2.45;;
50104;SDS011;47690;39.202;-77.198;2023-04-06T10:29:44;2.80;;;2.50;;
50104;SDS011;47690;39.202;-77.198;2023-04-06T10:32:31;3.08;;;2.47;;
50104;SDS011;47690;39.202;-77.198;2023-04-06T10:35:11;3.70;;;2.40;;
50104;SDS011;47690;39.202;-77.198;2023-04-06T10:37:52;2.45;;;2.25;;
50104;SDS011;47690;39.202;-77.198;2023-04-06T10:40:29;3.17;;;2.45;;
50104;SDS011;47690;39.202;-77.198;2023-04-06T10:43:10;3.03;;;2.60;;
50104;SDS011;47690;39.202;-77.198;2023-04-06T10:45:43;2.40;;;2.20;;
50104;SDS011;47690;39.202;-77.198;2023-04-06T10:50:49;3.03;;;2.47;;
50104;SDS011;47690;39.202;-77.198;2023-04-06T10:53:24;2.60;;;2.40;;
50104;SDS011;47690;39.202;-77.198;2023-04-06T10:55:57;2.65;;;2.45;;
50104;SDS011;47690;39.202;-77.198;2023-04-06T10:58:29;2.80;;;2.22;;
50104;SDS011;47690;39.202;-77.198;2023-04-06T11:01:02;2.88;;;2.38;;
50104;SDS011;47690;39.202;-77.198;2023-04-06T11:03:42;2.78;;;2.35;;
50104;SDS011;47690;39.202;-77.198;2023-04-06T11:06:22;2.80;;;2.40;;
50104;SDS011;47690;39.202;-77.198;2023-04-06T11:09:00;2.25;;;2.05;;
50104;SDS011;47690;39.202;-77.198;2023-04-06T11:11:33;2.63;;;2.42;;
50104;SDS011;47690;39.202;-77.198;2023-04-06T11:14:15;2.60;;;2.40;;
50104;SDS011;47690;39.202;-77.198;2023-04-06T11:16:46;2.70;;;2.50;;
50104;SDS011;47690;39.202;-77.198;2023-04-06T11:19:21;2.50;;;2.30;;
50104;SDS011;47690;39.202;-77.198;2023-04-06T11:21:53;2.67;;;2.35;;
50104;SDS011;47690;39.202;-77.198;2023-04-06T11:24:30;3.20;;;2.50;;
50104;SDS011;47690;39.202;-77.198;2023-04-06T11:27:07;2.50;;;2.30;;
50104;SDS011;47690;39.202;-77.198;2023-04-06T11:29:37;2.47;;;2.28;;
50104;SDS011;47690;39.202;-77.198;2023-04-06T11:32:11;2.85;;;2.55;;
50104;SDS011;47690;39.202;-77.198;2023-04-06T11:34:49;3.35;;;2.40;;
50104;SDS011;47690;39.202;-77.198;2023-04-06T11:37:21;4.20;;;2.53;;
50104;SDS011;47690;39.202;-77.198;2023-04-06T11:39:59;2.50;;;2.30;;
50104;SDS011;47690;39.202;-77.198;2023-04-06T11:42:34;2.35;;;2.15;;
50104;SDS011;47690;39.202;-77.198;2023-04-06T11:45:10;2.88;;;2.30;;
50104;SDS011;47690;39.202;-77.198;2023-04-06T11:47:45;2.80;;;2.42;;
50104;SDS011;47690;39.202;-77.198;2023-04-06T11:50:32;2.90;;;2.50;;
50104;SDS011;47690;39.202;-77.198;2023-04-06T11:53:04;2.40;;;2.20;;
50104;SDS011;47690;39.202;-77.198;2023-04-06T11:55:40;3.03;;;2.58;;
50104;SDS011;47690;39.202;-77.198;2023-04-06T11:58:16;2.60;;;2.40;;
50104;SDS011;47690;39.202;-77.198;2023-04-06T12:00:47;3.35;;;2.55;;
50104;SDS011;47690;39.202;-77.198;2023-04-06T12:03:18;2.83;;;2.55;;
50104;SDS011;47690;39.202;-77.198;2023-04-06T12:05:51;2.97;;;2.65;;
50104;SDS011;47690;39.202;-77.198;2023-04-06T12:08:21;2.88;;;2.58;;
50104;SDS011;47690;39.202;-77.198;2023-04-06T12:11:01;2.67;;;2.45;;
50104;SDS011;47690;39.202;-77.198;2023-04-06T12:13:31;3.63;;;2.65;;
50104;SDS011;47690;39.202;-77.198;2023-04-06T12:16:00;2.78;;;2.47;;
50104;SDS011;47690;39.202;-77.198;2023-04-06T12:18:32;2.88;;;2.58;;
50104;SDS011;47690;39.202;-77.198;2023-04-06T12:21:07;4.20;;;2.40;;
50104;SDS011;47690;39.202;-77.198;2023-04-06T12:23:37;4.85;;;2.53;;
50104;SDS011;47690;39.202;-77.198;2023-04-06T12:26:10;2.60;;;2.40;;
50104;SDS011;47690;39.202;-77.198;2023-04-06T12:28:41;3.78;;;2.40;;
50104;SDS011;47690;39.202;-77.198;2023-04-06T12:31:18;3.22;;;2.50;;
50104;SDS011;47690;39.202;-77.198;2023-04-06T12:33:52;2.78;;;2.40;;
50104;SDS011;47690;39.202;-77.198;2023-04-06T12:36:23;2.72;;;2.33;;
50104;SDS011;47690;39.202;-77.198;2023-04-06T12:38:57;3.13;;;2.50;;
50104;SDS011;47690;39.202;-77.198;2023-04-06T12:41:33;3.42;;;2.90;;
50104;SDS011;47690;39.202;-77.198;2023-04-06T12:44:05;2.47;;;2.28;;
50104;SDS011;47690;39.202;-77.198;2023-04-06T12:46:40;3.17;;;2.50;;
50104;SDS011;47690;39.202;-77.198;2023-04-06T12:49:14;2.63;;;2.42;;
50104;SDS011;47690;39.202;-77.198;2023-04-06T12:51:45;2.60;;;2.40;;
50104;SDS011;47690;39.202;-77.198;2023-04-06T12:54:17;2.90;;;2.40;;
50104;SDS011;47690;39.202;-77.198;2023-04-06T12:56:47;2.88;;;2.25;;
50104;SDS011;47690;39.202;-77.198;2023-04-06T12:59:17;3.50;;;2.60;;
50104;SDS011;47690;39.202;-77.198;2023-04-06T13:01:51;2.63;;;2.42;;
50104;SDS011;47690;39.202;-77.198;2023-04-06T13:04:21;2.83;;;2.50;;
50104;SDS011;47690;39.202;-77.198;2023-04-06T13:06:56;2.97;;;2.28;;
50104;SDS011;47690;39.202;-77.198;2023-04-06T13:09:32;3.90;;;2.75;;
50104;SDS011;47690;39.202;-77.198;2023-04-06T13:12:10;2.45;;;2.25;;
50104;SDS011;47690;39.202;-77.198;2023-04-06T13:14:43;2.67;;;2.30;;
50104;SDS011;47690;39.202;-77.198;2023-04-06T13:17:13;2.90;;;2.28;;
50104;SDS011;47690;39.202;-77.198;2023-04-06T13:19:46;2.58;;;2.17;;
50104;SDS011;47690;39.202;-77.198;2023-04-06T13:22:19;2.53;;;2.28;;
50104;SDS011;47690;39.202;-77.198;2023-04-06T13:24:51;2.38;;;2.13;;
50104;SDS011;47690;39.202;-77.198;2023-04-06T13:27:21;3.13;;;2.47;;
50104;SDS011;47690;39.202;-77.198;2023-04-06T13:29:52;2.20;;;2.00;;
50104;SDS011;47690;39.202;-77.198;2023-04-06T13:32:22;2.30;;;2.10;;
50104;SDS011;47690;39.202;-77.198;2023-04-06T13:34:55;2.35;;;2.05;;
50104;SDS011;47690;39.202;-77.198;2023-04-06T13:37:29;2.50;;;2.13;;
50104;SDS011;47690;39.202;-77.198;2023-04-06T13:40:02;2.90;;;2.20;;
50104;SDS011;47690;39.202;-77.198;2023-04-06T13:42:35;2.63;;;2.15;;
50104;SDS011;47690;39.202;-77.198;2023-04-06T13:45:07;2.30;;;2.00;;
50104;SDS011;47690;39.202;-77.198;2023-04-06T13:47:37;2.15;;;1.95;;
50104;SDS011;47690;39.202;-77.198;2023-04-06T13:50:08;2.40;;;2.20;;
50104;SDS011;47690;39.202;-77.198;2023-04-06T13:52:38;2.83;;;1.90;;
50104;SDS011;47690;39.202;-77.198;2023-04-06T13:55:09;2.42;;;2.15;;
50104;SDS011;47690;39.202;-77.198;2023-04-06T13:57:41;2.72;;;2.13;;
50104;SDS011;47690;39.202;-77.198;2023-04-06T14:00:12;2.08;;;1.88;;
50104;SDS011;47690;39.202;-77.198;2023-04-06T14:02:47;2.00;;;1.80;;
50104;SDS011;47690;39.202;-77.198;2023-04-06T14:05:47;2.00;;;1.80;;
50104;SDS011;47690;39.202;-77.198;2023-04-06T14:08:23;1.83;;;1.70;;
50104;SDS011;47690;39.202;-77.198;2023-04-06T14:10:57;1.98;;;1.77;;
50104;SDS011;47690;39.202;-77.198;2023-04-06T14:13:31;2.13;;;1.92;;
50104;SDS011;47690;39.202;-77.198;2023-04-06T14:16:07;1.98;;;1.77;;
50104;SDS011;47690;39.202;-77.198;2023-04-06T14:18:42;1.77;;;1.65;;
50104;SDS011;47690;39.202;-77.198;2023-04-06T14:21:12;2.72;;;1.70;;
50104;SDS011;47690;39.202;-77.198;2023-04-06T14:23:41;1.88;;;1.70;;
50104;SDS011;47690;39.202;-77.198;2023-04-06T14:26:14;1.77;;;1.67;;
50104;SDS011;47690;39.202;-77.198;2023-04-06T14:28:45;2.10;;;1.90;;
50104;SDS011;47690;39.202;-77.198;2023-04-06T14:31:17;2.00;;;1.80;;
50104;SDS011;47690;39.202;-77.198;2023-04-06T14:33:48;1.80;;;1.67;;
50104;SDS011;47690;39.202;-77.198;2023-04-06T14:36:18;3.10;;;1.75;;
50104;SDS011;47690;39.202;-77.198;2023-04-06T14:38:49;2.70;;;1.95;;
50104;SDS011;47690;39.202;-77.198;2023-04-06T14:41:22;2.40;;;2.00;;
50104;SDS011;47690;39.202;-77.198;2023-04-06T14:43:59;1.80;;;1.70;;
50104;SDS011;47690;39.202;-77.198;2023-04-06T14:46:32;2.17;;;1.98;;
50104;SDS011;47690;39.202;-77.198;2023-04-06T14:49:03;1.70;;;1.60;;
50104;SDS011;47690;39.202;-77.198;2023-04-06T14:51:37;1.90;;;1.80;;
50104;SDS011;47690;39.202;-77.198;2023-04-06T14:54:11;2.30;;;2.10;;
50104;SDS011;47690;39.202;-77.198;2023-04-06T14:56:41;2.28;;;2.08;;
50104;SDS011;47690;39.202;-77.198;2023-04-06T14:59:19;2.00;;;1.90;;
50104;SDS011;47690;39.202;-77.198;2023-04-06T15:01:48;1.75;;;1.65;;
50104;SDS011;47690;39.202;-77.198;2023-04-06T15:04:20;1.70;;;1.60;;
50104;SDS011;47690;39.202;-77.198;2023-04-06T15:06:51;2.10;;;1.80;;
50104;SDS011;47690;39.202;-77.198;2023-04-06T15:09:27;1.75;;;1.65;;
50104;SDS011;47690;39.202;-77.198;2023-04-06T15:12:04;2.25;;;1.75;;
50104;SDS011;47690;39.202;-77.198;2023-04-06T15:14:39;2.08;;;1.88;;
50104;SDS011;47690;39.202;-77.198;2023-04-06T15:17:11;1.90;;;1.70;;
50104;SDS011;47690;39.202;-77.198;2023-04-06T15:19:42;1.70;;;1.60;;
50104;SDS011;47690;39.202;-77.198;2023-04-06T15:22:12;2.38;;;1.83;;
50104;SDS011;47690;39.202;-77.198;2023-04-06T15:24:48;1.63;;;1.52;;
50104;SDS011;47690;39.202;-77.198;2023-04-06T15:27:24;1.70;;;1.60;;
50104;SDS011;47690;39.202;-77.198;2023-04-06T15:30:02;1.80;;;1.70;;
50104;SDS011;47690;39.202;-77.198;2023-04-06T15:32:59;1.88;;;1.67;;
50104;SDS011;47690;39.202;-77.198;2023-04-06T15:36:02;2.20;;;1.70;;